sensor_id;sensor_type;location;lat;lon;timestamp;P1;durP1;ratioP1;P2;durP2;ratioP2
48181;SDS011;33976;47.436;18.876;2022-07-23T00:00:46;5.35;;;3.75;;
48181;SDS011;33976;47.436;18.876;2022-07-23T00:03:14;8.45;;;4.32;;
48181;SDS011;33976;47.436;18.876;2022-07-23T00:05:42;6.70;;;4.30;;
48181;SDS011;33976;47.436;18.876;2022-07-23T00:08:10;7.37;;;4.50;;
48181;SDS011;33976;47.436;18.876;2022-07-23T00:10:41;10.73;;;4.45;;
48181;SDS011;33976;47.436;18.876;2022-07-23T00:13:08;9.32;;;4.60;;
48181;SDS011;33976;47.436;18.876;2022-07-23T00:15:37;13.23;;;4.57;;
48181;SDS011;33976;47.436;18.876;2022-07-23T00:18:05;7.87;;;4.70;;
48181;SDS011;33976;47.436;18.876;2022-07-23T00:20:33;5.85;;;4.32;;
48181;SDS011;33976;47.436;18.876;2022-07-23T00:23:00;7.32;;;5.07;;
48181;SDS011;33976;47.436;18.876;2022-07-23T00:25:29;5.87;;;4.30;;
48181;SDS011;33976;47.436;18.876;2022-07-23T00:27:58;8.63;;;4.30;;
48181;SDS011;33976;47.436;18.876;2022-07-23T00:30:27;10.23;;;4.78;;
48181;SDS011;33976;47.436;18.876;2022-07-23T00:33:00;6.75;;;4.55;;
48181;SDS011;33976;47.436;18.876;2022-07-23T00:35:31;7.28;;;4.62;;
48181;SDS011;33976;47.436;18.876;2022-07-23T00:38:03;9.77;;;5.07;;
48181;SDS011;33976;47.436;18.876;2022-07-23T00:40:32;7.03;;;5.00;;
48181;SDS011;33976;47.436;18.876;2022-07-23T00:43:01;7.93;;;5.03;;
48181;SDS011;33976;47.436;18.876;2022-07-23T00:45:29;11.23;;;5.32;;
48181;SDS011;33976;47.436;18.876;2022-07-23T00:47:58;6.07;;;4.32;;
48181;SDS011;33976;47.436;18.876;2022-07-23T00:50:26;7.20;;;4.53;;
48181;SDS011;33976;47.436;18.876;2022-07-23T00:52:55;9.13;;;4.95;;
48181;SDS011;33976;47.436;18.876;2022-07-23T00:55:23;9.63;;;4.18;;
48181;SDS011;33976;47.436;18.876;2022-07-23T00:57:52;8.45;;;5.18;;
48181;SDS011;33976;47.436;18.876;2022-07-23T01:00:21;5.62;;;4.07;;
48181;SDS011;33976;47.436;18.876;2022-07-23T01:02:49;6.35;;;4.32;;
48181;SDS011;33976;47.436;18.876;2022-07-23T01:05:17;9.55;;;4.40;;
48181;SDS011;33976;47.436;18.876;2022-07-23T01:07:50;7.62;;;4.53;;
48181;SDS011;33976;47.436;18.876;2022-07-23T01:10:23;6.32;;;4.47;;
48181;SDS011;33976;47.436;18.876;2022-07-23T01:13:03;7.75;;;5.22;;
48181;SDS011;33976;47.436;18.876;2022-07-23T01:15:33;9.25;;;4.90;;
48181;SDS011;33976;47.436;18.876;2022-07-23T01:18:03;8.18;;;4.55;;
48181;SDS011;33976;47.436;18.876;2022-07-23T01:20:32;8.55;;;4.55;;
48181;SDS011;33976;47.436;18.876;2022-07-23T01:23:00;9.15;;;4.95;;
48181;SDS011;33976;47.436;18.876;2022-07-23T01:25:29;7.47;;;4.45;;
48181;SDS011;33976;47.436;18.876;2022-07-23T01:27:57;7.40;;;4.28;;
48181;SDS011;33976;47.436;18.876;2022-07-23T01:30:25;7.43;;;4.60;;
48181;SDS011;33976;47.436;18.876;2022-07-23T01:32:53;6.65;;;4.65;;
48181;SDS011;33976;47.436;18.876;2022-07-23T01:35:21;8.25;;;4.90;;
48181;SDS011;33976;47.436;18.876;2022-07-23T01:37:49;8.88;;;4.82;;
48181;SDS011;33976;47.436;18.876;2022-07-23T01:40:18;8.05;;;5.32;;
48181;SDS011;33976;47.436;18.876;2022-07-23T01:42:48;8.90;;;4.32;;
48181;SDS011;33976;47.436;18.876;2022-07-23T01:45:17;10.85;;;4.75;;
48181;SDS011;33976;47.436;18.876;2022-07-23T01:47:46;7.40;;;5.12;;
48181;SDS011;33976;47.436;18.876;2022-07-23T01:50:14;8.75;;;4.70;;
48181;SDS011;33976;47.436;18.876;2022-07-23T01:52:42;6.82;;;4.30;;
48181;SDS011;33976;47.436;18.876;2022-07-23T01:55:10;7.45;;;4.95;;
48181;SDS011;33976;47.436;18.876;2022-07-23T01:57:46;8.60;;;5.57;;
48181;SDS011;33976;47.436;18.876;2022-07-23T02:00:15;8.80;;;4.80;;
48181;SDS011;33976;47.436;18.876;2022-07-23T02:02:45;6.37;;;4.35;;
48181;SDS011;33976;47.436;18.876;2022-07-23T02:05:12;8.45;;;5.15;;
48181;SDS011;33976;47.436;18.876;2022-07-23T02:07:41;8.00;;;5.30;;
48181;SDS011;33976;47.436;18.876;2022-07-23T02:10:09;7.78;;;4.72;;
48181;SDS011;33976;47.436;18.876;2022-07-23T02:12:37;7.93;;;4.47;;
48181;SDS011;33976;47.436;18.876;2022-07-23T02:15:06;8.13;;;5.20;;
48181;SDS011;33976;47.436;18.876;2022-07-23T02:17:36;6.43;;;4.80;;
48181;SDS011;33976;47.436;18.876;2022-07-23T02:20:06;11.65;;;4.82;;
48181;SDS011;33976;47.436;18.876;2022-07-23T02:22:35;6.55;;;4.93;;
48181;SDS011;33976;47.436;18.876;2022-07-23T02:25:06;7.85;;;5.12;;
48181;SDS011;33976;47.436;18.876;2022-07-23T02:27:35;7.53;;;5.50;;
48181;SDS011;33976;47.436;18.876;2022-07-23T02:30:04;6.90;;;4.75;;
48181;SDS011;33976;47.436;18.876;2022-07-23T02:32:33;8.13;;;4.85;;
48181;SDS011;33976;47.436;18.876;2022-07-23T02:35:02;6.28;;;4.93;;
48181;SDS011;33976;47.436;18.876;2022-07-23T02:37:31;8.25;;;5.10;;
48181;SDS011;33976;47.436;18.876;2022-07-23T02:39:59;8.23;;;4.82;;
48181;SDS011;33976;47.436;18.876;2022-07-23T02:42:30;8.02;;;4.50;;
48181;SDS011;33976;47.436;18.876;2022-07-23T02:44:57;8.38;;;4.97;;
48181;SDS011;33976;47.436;18.876;2022-07-23T02:47:25;10.60;;;5.03;;
48181;SDS011;33976;47.436;18.876;2022-07-23T02:49:56;7.12;;;4.90;;
48181;SDS011;33976;47.436;18.876;2022-07-23T02:52:24;7.78;;;5.12;;
48181;SDS011;33976;47.436;18.876;2022-07-23T02:54:51;6.65;;;4.75;;
48181;SDS011;33976;47.436;18.876;2022-07-23T02:57:19;9.32;;;5.82;;
48181;SDS011;33976;47.436;18.876;2022-07-23T02:59:47;10.60;;;6.28;;
48181;SDS011;33976;47.436;18.876;2022-07-23T03:02:17;7.60;;;5.12;;
48181;SDS011;33976;47.436;18.876;2022-07-23T03:04:45;10.55;;;5.93;;
48181;SDS011;33976;47.436;18.876;2022-07-23T03:07:13;8.07;;;5.75;;
48181;SDS011;33976;47.436;18.876;2022-07-23T03:09:41;7.37;;;5.32;;
48181;SDS011;33976;47.436;18.876;2022-07-23T03:12:09;6.97;;;5.03;;
48181;SDS011;33976;47.436;18.876;2022-07-23T03:14:40;9.43;;;5.25;;
48181;SDS011;33976;47.436;18.876;2022-07-23T03:17:08;8.35;;;4.97;;
48181;SDS011;33976;47.436;18.876;2022-07-23T03:19:37;7.10;;;5.10;;
48181;SDS011;33976;47.436;18.876;2022-07-23T03:22:07;14.32;;;6.20;;
48181;SDS011;33976;47.436;18.876;2022-07-23T03:24:34;10.68;;;5.82;;
48181;SDS011;33976;47.436;18.876;2022-07-23T03:27:25;11.12;;;5.50;;
48181;SDS011;33976;47.436;18.876;2022-07-23T03:29:55;6.70;;;4.72;;
48181;SDS011;33976;47.436;18.876;2022-07-23T03:32:24;8.90;;;6.28;;
48181;SDS011;33976;47.436;18.876;2022-07-23T03:34:52;9.20;;;5.40;;
48181;SDS011;33976;47.436;18.876;2022-07-23T03:37:21;22.70;;;6.47;;
48181;SDS011;33976;47.436;18.876;2022-07-23T03:39:49;10.55;;;5.32;;
48181;SDS011;33976;47.436;18.876;2022-07-23T03:42:17;7.50;;;5.53;;
48181;SDS011;33976;47.436;18.876;2022-07-23T03:44:45;7.37;;;4.68;;
48181;SDS011;33976;47.436;18.876;2022-07-23T03:47:13;10.57;;;5.12;;
48181;SDS011;33976;47.436;18.876;2022-07-23T03:49:43;9.18;;;5.00;;
48181;SDS011;33976;47.436;18.876;2022-07-23T03:52:11;10.57;;;5.30;;
48181;SDS011;33976;47.436;18.876;2022-07-23T03:54:38;9.77;;;5.40;;
48181;SDS011;33976;47.436;18.876;2022-07-23T03:57:07;10.68;;;5.05;;
48181;SDS011;33976;47.436;18.876;2022-07-23T03:59:35;8.40;;;4.90;;
48181;SDS011;33976;47.436;18.876;2022-07-23T04:02:02;15.93;;;6.35;;
48181;SDS011;33976;47.436;18.876;2022-07-23T04:04:31;32.67;;;6.07;;
48181;SDS011;33976;47.436;18.876;2022-07-23T04:06:59;24.05;;;6.80;;
48181;SDS011;33976;47.436;18.876;2022-07-23T04:09:27;9.73;;;4.95;;
48181;SDS011;33976;47.436;18.876;2022-07-23T04:11:56;7.97;;;5.30;;
48181;SDS011;33976;47.436;18.876;2022-07-23T04:14:23;9.45;;;5.22;;
48181;SDS011;33976;47.436;18.876;2022-07-23T04:16:51;7.45;;;5.80;;
48181;SDS011;33976;47.436;18.876;2022-07-23T04:19:20;9.50;;;5.30;;
48181;SDS011;33976;47.436;18.876;2022-07-23T04:21:49;7.87;;;5.20;;
48181;SDS011;33976;47.436;18.876;2022-07-23T04:24:17;9.70;;;5.53;;
48181;SDS011;33976;47.436;18.876;2022-07-23T04:26:45;8.45;;;6.60;;
48181;SDS011;33976;47.436;18.876;2022-07-23T04:29:13;8.38;;;5.15;;
48181;SDS011;33976;47.436;18.876;2022-07-23T04:31:41;7.97;;;5.62;;
48181;SDS011;33976;47.436;18.876;2022-07-23T04:34:09;8.18;;;5.47;;
48181;SDS011;33976;47.436;18.876;2022-07-23T04:36:37;8.23;;;5.05;;
48181;SDS011;33976;47.436;18.876;2022-07-23T04:39:05;10.75;;;5.22;;
48181;SDS011;33976;47.436;18.876;2022-07-23T04:41:34;8.18;;;4.78;;
48181;SDS011;33976;47.436;18.876;2022-07-23T04:44:02;8.77;;;5.10;;
48181;SDS011;33976;47.436;18.876;2022-07-23T04:46:31;7.10;;;5.60;;
48181;SDS011;33976;47.436;18.876;2022-07-23T04:49:01;7.20;;;5.70;;
48181;SDS011;33976;47.436;18.876;2022-07-23T04:51:30;9.80;;;5.32;;
48181;SDS011;33976;47.436;18.876;2022-07-23T04:53:57;12.20;;;5.60;;
48181;SDS011;33976;47.436;18.876;2022-07-23T04:56:26;8.05;;;5.62;;
48181;SDS011;33976;47.436;18.876;2022-07-23T04:58:54;33.35;;;7.68;;
48181;SDS011;33976;47.436;18.876;2022-07-23T05:01:22;14.18;;;5.45;;
48181;SDS011;33976;47.436;18.876;2022-07-23T05:03:50;11.90;;;5.90;;
48181;SDS011;33976;47.436;18.876;2022-07-23T05:06:18;8.52;;;4.82;;
48181;SDS011;33976;47.436;18.876;2022-07-23T05:08:46;10.00;;;5.00;;
48181;SDS011;33976;47.436;18.876;2022-07-23T05:11:15;15.05;;;4.78;;
48181;SDS011;33976;47.436;18.876;2022-07-23T05:13:43;10.73;;;4.68;;
48181;SDS011;33976;47.436;18.876;2022-07-23T05:16:11;10.38;;;5.00;;
48181;SDS011;33976;47.436;18.876;2022-07-23T05:18:40;13.82;;;5.20;;
48181;SDS011;33976;47.436;18.876;2022-07-23T05:21:07;9.02;;;4.93;;
48181;SDS011;33976;47.436;18.876;2022-07-23T05:23:35;12.00;;;4.82;;
48181;SDS011;33976;47.436;18.876;2022-07-23T05:26:04;10.70;;;5.05;;
48181;SDS011;33976;47.436;18.876;2022-07-23T05:28:32;10.15;;;5.00;;
48181;SDS011;33976;47.436;18.876;2022-07-23T05:31:00;9.68;;;5.50;;
48181;SDS011;33976;47.436;18.876;2022-07-23T05:33:29;9.30;;;4.62;;
48181;SDS011;33976;47.436;18.876;2022-07-23T05:36:01;15.77;;;5.30;;
48181;SDS011;33976;47.436;18.876;2022-07-23T05:38:31;6.95;;;4.65;;
48181;SDS011;33976;47.436;18.876;2022-07-23T05:41:01;11.80;;;4.62;;
48181;SDS011;33976;47.436;18.876;2022-07-23T05:43:29;8.85;;;4.53;;
48181;SDS011;33976;47.436;18.876;2022-07-23T05:45:58;9.98;;;4.82;;
48181;SDS011;33976;47.436;18.876;2022-07-23T05:48:26;10.45;;;4.47;;
48181;SDS011;33976;47.436;18.876;2022-07-23T05:50:55;16.00;;;5.37;;
48181;SDS011;33976;47.436;18.876;2022-07-23T05:53:24;25.17;;;4.78;;
48181;SDS011;33976;47.436;18.876;2022-07-23T05:55:52;13.00;;;4.60;;
48181;SDS011;33976;47.436;18.876;2022-07-23T05:58:20;18.35;;;5.50;;
48181;SDS011;33976;47.436;18.876;2022-07-23T06:00:49;19.95;;;5.07;;
48181;SDS011;33976;47.436;18.876;2022-07-23T06:03:17;29.92;;;5.87;;
48181;SDS011;33976;47.436;18.876;2022-07-23T06:05:45;16.65;;;5.07;;
48181;SDS011;33976;47.436;18.876;2022-07-23T06:08:13;15.02;;;4.95;;
48181;SDS011;33976;47.436;18.876;2022-07-23T06:10:42;13.75;;;3.90;;
48181;SDS011;33976;47.436;18.876;2022-07-23T06:13:10;6.60;;;4.60;;
48181;SDS011;33976;47.436;18.876;2022-07-23T06:15:38;13.48;;;5.00;;
48181;SDS011;33976;47.436;18.876;2022-07-23T06:18:06;6.03;;;4.18;;
48181;SDS011;33976;47.436;18.876;2022-07-23T06:20:34;10.82;;;4.85;;
48181;SDS011;33976;47.436;18.876;2022-07-23T06:23:01;11.75;;;4.70;;
48181;SDS011;33976;47.436;18.876;2022-07-23T06:25:30;10.73;;;4.47;;
48181;SDS011;33976;47.436;18.876;2022-07-23T06:27:58;6.28;;;4.12;;
48181;SDS011;33976;47.436;18.876;2022-07-23T06:30:27;7.30;;;4.80;;
48181;SDS011;33976;47.436;18.876;2022-07-23T06:32:55;6.75;;;4.80;;
48181;SDS011;33976;47.436;18.876;2022-07-23T06:35:23;8.98;;;4.28;;
48181;SDS011;33976;47.436;18.876;2022-07-23T06:37:51;10.35;;;4.50;;
48181;SDS011;33976;47.436;18.876;2022-07-23T06:40:21;8.23;;;4.43;;
48181;SDS011;33976;47.436;18.876;2022-07-23T06:42:49;9.82;;;4.70;;
48181;SDS011;33976;47.436;18.876;2022-07-23T06:45:17;7.37;;;4.40;;
48181;SDS011;33976;47.436;18.876;2022-07-23T06:47:46;9.18;;;4.65;;
48181;SDS011;33976;47.436;18.876;2022-07-23T06:50:14;16.20;;;4.32;;
48181;SDS011;33976;47.436;18.876;2022-07-23T06:52:42;8.88;;;3.95;;
48181;SDS011;33976;47.436;18.876;2022-07-23T06:55:10;11.70;;;4.37;;
48181;SDS011;33976;47.436;18.876;2022-07-23T06:57:38;9.57;;;4.03;;
48181;SDS011;33976;47.436;18.876;2022-07-23T07:00:06;20.48;;;4.80;;
48181;SDS011;33976;47.436;18.876;2022-07-23T07:02:35;10.93;;;4.12;;
48181;SDS011;33976;47.436;18.876;2022-07-23T07:05:04;8.65;;;4.30;;
48181;SDS011;33976;47.436;18.876;2022-07-23T07:07:33;8.88;;;4.22;;
48181;SDS011;33976;47.436;18.876;2022-07-23T07:10:02;9.48;;;4.53;;
48181;SDS011;33976;47.436;18.876;2022-07-23T07:12:31;12.20;;;4.65;;
48181;SDS011;33976;47.436;18.876;2022-07-23T07:14:58;8.18;;;4.40;;
48181;SDS011;33976;47.436;18.876;2022-07-23T07:17:27;10.50;;;4.10;;
48181;SDS011;33976;47.436;18.876;2022-07-23T07:19:55;7.82;;;4.10;;
48181;SDS011;33976;47.436;18.876;2022-07-23T07:22:23;6.32;;;4.12;;
48181;SDS011;33976;47.436;18.876;2022-07-23T07:24:51;11.12;;;3.92;;
48181;SDS011;33976;47.436;18.876;2022-07-23T07:27:19;8.35;;;4.18;;
48181;SDS011;33976;47.436;18.876;2022-07-23T07:29:47;11.10;;;7.00;;
48181;SDS011;33976;47.436;18.876;2022-07-23T07:32:15;11.38;;;4.32;;
48181;SDS011;33976;47.436;18.876;2022-07-23T07:35:03;9.50;;;4.62;;
48181;SDS011;33976;47.436;18.876;2022-07-23T07:37:32;10.88;;;3.97;;
48181;SDS011;33976;47.436;18.876;2022-07-23T07:40:00;6.15;;;3.95;;
48181;SDS011;33976;47.436;18.876;2022-07-23T07:42:28;7.35;;;4.68;;
48181;SDS011;33976;47.436;18.876;2022-07-23T07:44:56;9.13;;;4.07;;
48181;SDS011;33976;47.436;18.876;2022-07-23T07:47:24;7.93;;;4.07;;
48181;SDS011;33976;47.436;18.876;2022-07-23T07:49:52;7.37;;;3.80;;
48181;SDS011;33976;47.436;18.876;2022-07-23T07:52:21;9.80;;;3.97;;
48181;SDS011;33976;47.436;18.876;2022-07-23T07:54:49;8.90;;;4.32;;
48181;SDS011;33976;47.436;18.876;2022-07-23T07:57:16;7.87;;;3.90;;
48181;SDS011;33976;47.436;18.876;2022-07-23T07:59:46;10.93;;;3.60;;
48181;SDS011;33976;47.436;18.876;2022-07-23T08:02:13;8.50;;;3.92;;
48181;SDS011;33976;47.436;18.876;2022-07-23T08:04:41;10.35;;;4.47;;
48181;SDS011;33976;47.436;18.876;2022-07-23T08:07:09;9.90;;;3.80;;
48181;SDS011;33976;47.436;18.876;2022-07-23T08:09:37;8.05;;;3.10;;
48181;SDS011;33976;47.436;18.876;2022-07-23T08:12:05;14.90;;;3.92;;
48181;SDS011;33976;47.436;18.876;2022-07-23T08:14:33;7.22;;;3.90;;
48181;SDS011;33976;47.436;18.876;2022-07-23T08:17:01;7.78;;;3.78;;
48181;SDS011;33976;47.436;18.876;2022-07-23T08:19:41;9.90;;;4.30;;
48181;SDS011;33976;47.436;18.876;2022-07-23T08:22:10;16.90;;;10.50;;
48181;SDS011;33976;47.436;18.876;2022-07-23T08:24:38;7.50;;;4.00;;
48181;SDS011;33976;47.436;18.876;2022-07-23T08:27:06;7.45;;;3.90;;
48181;SDS011;33976;47.436;18.876;2022-07-23T08:29:34;7.45;;;3.55;;
48181;SDS011;33976;47.436;18.876;2022-07-23T08:32:01;5.60;;;3.60;;
48181;SDS011;33976;47.436;18.876;2022-07-23T08:34:50;7.78;;;3.85;;
48181;SDS011;33976;47.436;18.876;2022-07-23T08:37:17;7.03;;;3.30;;
48181;SDS011;33976;47.436;18.876;2022-07-23T08:39:45;6.53;;;3.67;;
48181;SDS011;33976;47.436;18.876;2022-07-23T08:42:14;7.12;;;3.80;;
48181;SDS011;33976;47.436;18.876;2022-07-23T08:44:42;6.72;;;3.90;;
48181;SDS011;33976;47.436;18.876;2022-07-23T08:47:12;15.75;;;3.95;;
48181;SDS011;33976;47.436;18.876;2022-07-23T08:49:41;8.80;;;3.70;;
48181;SDS011;33976;47.436;18.876;2022-07-23T08:52:09;9.93;;;5.55;;
48181;SDS011;33976;47.436;18.876;2022-07-23T08:54:37;8.90;;;3.67;;
48181;SDS011;33976;47.436;18.876;2022-07-23T08:57:05;7.40;;;3.45;;
48181;SDS011;33976;47.436;18.876;2022-07-23T08:59:33;7.55;;;3.67;;
48181;SDS011;33976;47.436;18.876;2022-07-23T09:02:01;8.65;;;3.30;;
48181;SDS011;33976;47.436;18.876;2022-07-23T09:04:30;4.85;;;3.70;;
48181;SDS011;33976;47.436;18.876;2022-07-23T09:06:58;20.95;;;5.68;;
48181;SDS011;33976;47.436;18.876;2022-07-23T09:09:26;5.93;;;3.50;;
48181;SDS011;33976;47.436;18.876;2022-07-23T09:14:38;10.43;;;3.80;;
48181;SDS011;33976;47.436;18.876;2022-07-23T09:17:17;10.18;;;4.10;;
48181;SDS011;33976;47.436;18.876;2022-07-23T09:19:45;5.95;;;3.78;;
48181;SDS011;33976;47.436;18.876;2022-07-23T09:25:13;6.57;;;3.78;;
48181;SDS011;33976;47.436;18.876;2022-07-23T09:30:24;5.15;;;3.95;;
48181;SDS011;33976;47.436;18.876;2022-07-23T09:38:13;8.65;;;4.22;;
48181;SDS011;33976;47.436;18.876;2022-07-23T09:40:41;5.78;;;3.60;;
48181;SDS011;33976;47.436;18.876;2022-07-23T09:43:10;5.30;;;3.80;;
48181;SDS011;33976;47.436;18.876;2022-07-23T09:45:38;6.65;;;4.40;;
48181;SDS011;33976;47.436;18.876;2022-07-23T09:48:15;6.78;;;4.20;;
48181;SDS011;33976;47.436;18.876;2022-07-23T09:50:45;6.82;;;3.92;;
48181;SDS011;33976;47.436;18.876;2022-07-23T09:53:25;5.35;;;4.00;;
48181;SDS011;33976;47.436;18.876;2022-07-23T09:55:56;5.65;;;3.80;;
48181;SDS011;33976;47.436;18.876;2022-07-23T09:58:26;4.75;;;3.78;;
48181;SDS011;33976;47.436;18.876;2022-07-23T10:00:57;6.28;;;3.50;;
48181;SDS011;33976;47.436;18.876;2022-07-23T10:03:26;5.68;;;3.60;;
48181;SDS011;33976;47.436;18.876;2022-07-23T10:05:56;9.45;;;4.47;;
48181;SDS011;33976;47.436;18.876;2022-07-23T10:08:26;6.60;;;3.80;;
48181;SDS011;33976;47.436;18.876;2022-07-23T10:10:57;9.20;;;3.83;;
48181;SDS011;33976;47.436;18.876;2022-07-23T10:13:26;6.50;;;3.72;;
48181;SDS011;33976;47.436;18.876;2022-07-23T10:16:12;7.00;;;3.95;;
48181;SDS011;33976;47.436;18.876;2022-07-23T10:18:45;10.27;;;4.22;;
48181;SDS011;33976;47.436;18.876;2022-07-23T10:21:16;9.02;;;3.50;;
48181;SDS011;33976;47.436;18.876;2022-07-23T10:27:27;7.72;;;3.37;;
48181;SDS011;33976;47.436;18.876;2022-07-23T10:29:51;5.07;;;3.80;;
48181;SDS011;33976;47.436;18.876;2022-07-23T10:37:47;5.65;;;3.95;;
48181;SDS011;33976;47.436;18.876;2022-07-23T10:40:18;7.32;;;3.62;;
48181;SDS011;33976;47.436;18.876;2022-07-23T10:42:48;8.20;;;4.53;;
48181;SDS011;33976;47.436;18.876;2022-07-23T10:45:23;6.32;;;4.43;;
48181;SDS011;33976;47.436;18.876;2022-07-23T10:47:51;5.37;;;4.10;;
48181;SDS011;33976;47.436;18.876;2022-07-23T10:50:28;5.65;;;3.90;;
48181;SDS011;33976;47.436;18.876;2022-07-23T10:58:04;7.82;;;4.10;;
48181;SDS011;33976;47.436;18.876;2022-07-23T11:00:34;9.45;;;3.72;;
48181;SDS011;33976;47.436;18.876;2022-07-23T11:03:04;5.93;;;3.85;;
48181;SDS011;33976;47.436;18.876;2022-07-23T11:05:43;5.50;;;3.72;;
48181;SDS011;33976;47.436;18.876;2022-07-23T11:08:13;6.43;;;4.18;;
48181;SDS011;33976;47.436;18.876;2022-07-23T11:31:57;7.35;;;4.20;;
48181;SDS011;33976;47.436;18.876;2022-07-23T11:34:33;7.15;;;3.80;;
48181;SDS011;33976;47.436;18.876;2022-07-23T11:39:56;7.47;;;4.15;;
48181;SDS011;33976;47.436;18.876;2022-07-23T11:42:24;7.90;;;3.90;;
48181;SDS011;33976;47.436;18.876;2022-07-23T11:44:58;6.60;;;3.67;;
48181;SDS011;33976;47.436;18.876;2022-07-23T11:47:26;5.70;;;3.50;;
48181;SDS011;33976;47.436;18.876;2022-07-23T11:49:58;10.23;;;4.40;;
48181;SDS011;33976;47.436;18.876;2022-07-23T11:52:28;6.87;;;4.15;;
48181;SDS011;33976;47.436;18.876;2022-07-23T11:54:58;10.73;;;5.03;;
48181;SDS011;33976;47.436;18.876;2022-07-23T11:57:32;8.02;;;4.28;;
48181;SDS011;33976;47.436;18.876;2022-07-23T12:00:13;6.03;;;4.35;;
48181;SDS011;33976;47.436;18.876;2022-07-23T12:02:50;6.85;;;3.75;;
48181;SDS011;33976;47.436;18.876;2022-07-23T12:05:21;8.93;;;4.00;;
48181;SDS011;33976;47.436;18.876;2022-07-23T12:07:51;5.90;;;4.18;;
48181;SDS011;33976;47.436;18.876;2022-07-23T12:10:24;5.93;;;4.07;;
48181;SDS011;33976;47.436;18.876;2022-07-23T12:12:55;7.00;;;4.10;;
48181;SDS011;33976;47.436;18.876;2022-07-23T12:15:27;7.82;;;4.37;;
48181;SDS011;33976;47.436;18.876;2022-07-23T12:18:00;9.25;;;4.57;;
48181;SDS011;33976;47.436;18.876;2022-07-23T12:20:29;6.82;;;4.25;;
48181;SDS011;33976;47.436;18.876;2022-07-23T12:23:01;5.70;;;3.97;;
48181;SDS011;33976;47.436;18.876;2022-07-23T12:25:31;6.07;;;4.25;;
48181;SDS011;33976;47.436;18.876;2022-07-23T12:28:11;8.90;;;4.12;;
48181;SDS011;33976;47.436;18.876;2022-07-23T12:30:40;5.28;;;3.67;;
48181;SDS011;33976;47.436;18.876;2022-07-23T12:33:10;8.40;;;3.97;;
48181;SDS011;33976;47.436;18.876;2022-07-23T12:35:41;8.90;;;3.90;;
48181;SDS011;33976;47.436;18.876;2022-07-23T12:38:11;6.50;;;4.03;;
48181;SDS011;33976;47.436;18.876;2022-07-23T12:40:42;10.18;;;3.95;;
48181;SDS011;33976;47.436;18.876;2022-07-23T12:43:31;8.98;;;4.18;;
48181;SDS011;33976;47.436;18.876;2022-07-23T12:48:39;5.87;;;4.37;;
48181;SDS011;33976;47.436;18.876;2022-07-23T12:51:25;6.55;;;3.70;;
48181;SDS011;33976;47.436;18.876;2022-07-23T12:54:06;6.85;;;4.07;;
48181;SDS011;33976;47.436;18.876;2022-07-23T12:56:40;4.95;;;3.97;;
48181;SDS011;33976;47.436;18.876;2022-07-23T12:59:15;7.68;;;4.43;;
48181;SDS011;33976;47.436;18.876;2022-07-23T13:01:46;8.73;;;4.50;;
48181;SDS011;33976;47.436;18.876;2022-07-23T13:04:26;7.32;;;4.90;;
48181;SDS011;33976;47.436;18.876;2022-07-23T13:06:58;5.95;;;4.43;;
48181;SDS011;33976;47.436;18.876;2022-07-23T13:09:48;7.73;;;5.00;;
48181;SDS011;33976;47.436;18.876;2022-07-23T13:12:17;5.57;;;4.37;;
48181;SDS011;33976;47.436;18.876;2022-07-23T13:14:45;9.52;;;4.45;;
48181;SDS011;33976;47.436;18.876;2022-07-23T13:17:13;8.27;;;5.37;;
48181;SDS011;33976;47.436;18.876;2022-07-23T13:19:41;6.00;;;4.60;;
48181;SDS011;33976;47.436;18.876;2022-07-23T13:22:10;8.10;;;5.03;;
48181;SDS011;33976;47.436;18.876;2022-07-23T13:24:38;7.55;;;4.75;;
48181;SDS011;33976;47.436;18.876;2022-07-23T13:27:06;8.00;;;5.30;;
48181;SDS011;33976;47.436;18.876;2022-07-23T13:29:40;10.10;;;5.05;;
48181;SDS011;33976;47.436;18.876;2022-07-23T13:32:08;9.05;;;5.15;;
48181;SDS011;33976;47.436;18.876;2022-07-23T13:34:40;9.80;;;5.22;;
48181;SDS011;33976;47.436;18.876;2022-07-23T13:37:08;7.00;;;4.90;;
48181;SDS011;33976;47.436;18.876;2022-07-23T13:39:36;8.02;;;5.50;;
48181;SDS011;33976;47.436;18.876;2022-07-23T13:42:06;8.23;;;5.35;;
48181;SDS011;33976;47.436;18.876;2022-07-23T13:44:35;7.87;;;4.97;;
48181;SDS011;33976;47.436;18.876;2022-07-23T13:47:03;10.38;;;5.35;;
48181;SDS011;33976;47.436;18.876;2022-07-23T13:49:32;8.32;;;5.45;;
48181;SDS011;33976;47.436;18.876;2022-07-23T13:52:19;13.30;;;5.47;;
48181;SDS011;33976;47.436;18.876;2022-07-23T13:54:48;8.07;;;5.20;;
48181;SDS011;33976;47.436;18.876;2022-07-23T13:57:16;10.95;;;6.68;;
48181;SDS011;33976;47.436;18.876;2022-07-23T13:59:44;6.20;;;5.25;;
48181;SDS011;33976;47.436;18.876;2022-07-23T14:02:14;6.30;;;5.32;;
48181;SDS011;33976;47.436;18.876;2022-07-23T14:04:49;6.12;;;4.80;;
48181;SDS011;33976;47.436;18.876;2022-07-23T14:07:17;5.75;;;4.80;;
48181;SDS011;33976;47.436;18.876;2022-07-23T14:09:46;11.02;;;5.32;;
48181;SDS011;33976;47.436;18.876;2022-07-23T14:12:14;7.05;;;5.03;;
48181;SDS011;33976;47.436;18.876;2022-07-23T14:14:44;5.78;;;4.18;;
48181;SDS011;33976;47.436;18.876;2022-07-23T14:17:12;6.37;;;4.55;;
48181;SDS011;33976;47.436;18.876;2022-07-23T14:19:42;7.03;;;4.20;;
48181;SDS011;33976;47.436;18.876;2022-07-23T14:22:10;9.77;;;4.30;;
48181;SDS011;33976;47.436;18.876;2022-07-23T14:24:39;8.68;;;4.57;;
48181;SDS011;33976;47.436;18.876;2022-07-23T14:27:07;7.72;;;4.47;;
48181;SDS011;33976;47.436;18.876;2022-07-23T14:29:36;5.80;;;4.60;;
48181;SDS011;33976;47.436;18.876;2022-07-23T14:32:04;8.27;;;4.37;;
48181;SDS011;33976;47.436;18.876;2022-07-23T14:34:34;6.03;;;4.43;;
48181;SDS011;33976;47.436;18.876;2022-07-23T14:37:04;7.32;;;4.70;;
48181;SDS011;33976;47.436;18.876;2022-07-23T14:39:33;9.20;;;5.05;;
48181;SDS011;33976;47.436;18.876;2022-07-23T14:42:02;7.93;;;4.47;;
48181;SDS011;33976;47.436;18.876;2022-07-23T14:44:30;7.80;;;4.82;;
48181;SDS011;33976;47.436;18.876;2022-07-23T14:46:58;9.02;;;5.25;;
48181;SDS011;33976;47.436;18.876;2022-07-23T14:49:27;7.90;;;5.10;;
48181;SDS011;33976;47.436;18.876;2022-07-23T14:51:55;7.12;;;4.78;;
48181;SDS011;33976;47.436;18.876;2022-07-23T14:54:24;6.22;;;4.62;;
48181;SDS011;33976;47.436;18.876;2022-07-23T14:56:54;8.18;;;4.97;;
48181;SDS011;33976;47.436;18.876;2022-07-23T14:59:23;12.18;;;6.65;;
48181;SDS011;33976;47.436;18.876;2022-07-23T15:01:51;9.23;;;6.03;;
48181;SDS011;33976;47.436;18.876;2022-07-23T15:04:20;7.43;;;5.93;;
48181;SDS011;33976;47.436;18.876;2022-07-23T15:07:04;9.85;;;6.60;;
48181;SDS011;33976;47.436;18.876;2022-07-23T15:09:33;9.55;;;7.55;;
48181;SDS011;33976;47.436;18.876;2022-07-23T15:12:02;15.60;;;8.20;;
48181;SDS011;33976;47.436;18.876;2022-07-23T15:14:35;10.57;;;8.50;;
48181;SDS011;33976;47.436;18.876;2022-07-23T15:17:05;11.20;;;8.77;;
48181;SDS011;33976;47.436;18.876;2022-07-23T15:19:33;14.82;;;9.60;;
48181;SDS011;33976;47.436;18.876;2022-07-23T15:22:01;11.32;;;9.05;;
48181;SDS011;33976;47.436;18.876;2022-07-23T15:24:29;72.18;;;12.05;;
48181;SDS011;33976;47.436;18.876;2022-07-23T15:26:57;25.50;;;8.45;;
48181;SDS011;33976;47.436;18.876;2022-07-23T15:29:26;39.28;;;9.50;;
48181;SDS011;33976;47.436;18.876;2022-07-23T15:31:55;22.55;;;8.20;;
48181;SDS011;33976;47.436;18.876;2022-07-23T15:34:25;34.40;;;9.32;;
48181;SDS011;33976;47.436;18.876;2022-07-23T15:36:54;21.33;;;8.77;;
48181;SDS011;33976;47.436;18.876;2022-07-23T15:39:23;16.87;;;7.87;;